createdAt,value
2018-08-20T00:00:35.491Z,97966.67
2018-08-20T00:03:03.203Z,97964.39
2018-08-20T00:05:33.848Z,97967.66
2018-08-20T00:08:01.503Z,97970.95
2018-08-20T00:10:29.186Z,97961.61
2018-08-20T00:12:56.828Z,97961.61
2018-08-20T00:15:24.486Z,97962.73
2018-08-20T00:17:52.115Z,97968.73
2018-08-20T00:20:19.787Z,97967.97
2018-08-20T00:22:47.373Z,97967.68
2018-08-20T00:25:17.535Z,97970.05
2018-08-20T00:27:45.865Z,97965.37
2018-08-20T00:30:15.419Z,97962.27
2018-08-20T00:32:44.234Z,97965.89
2018-08-20T00:35:14.380Z,97960.54
2018-08-20T00:37:44.954Z,97961.84
2018-08-20T00:40:12.624Z,97964.77
2018-08-20T00:42:40.261Z,97963.50
2018-08-20T00:45:08.451Z,97967.30
2018-08-20T00:47:36.043Z,97976.68
2018-08-20T00:50:04.369Z,97966.94
2018-08-20T00:52:31.983Z,97968.35
2018-08-20T00:54:59.599Z,97966.33
2018-08-20T00:57:27.230Z,97969.62
2018-08-20T00:59:54.877Z,97967.48
2018-08-20T01:02:29.418Z,97970.64
2018-08-20T01:04:57.859Z,97975.31
2018-08-20T01:07:25.999Z,97962.85
2018-08-20T01:09:53.999Z,97966.98
2018-08-20T01:12:21.690Z,97966.87
2018-08-20T01:14:49.330Z,97969.68
2018-08-20T01:17:17.008Z,97965.45
2018-08-20T01:19:44.758Z,97970.73
2018-08-20T01:22:12.364Z,97969.98
2018-08-20T01:24:40.044Z,97967.05
2018-08-20T01:27:07.654Z,97971.28
2018-08-20T01:29:35.226Z,97971.09
2018-08-20T01:32:02.904Z,97968.16
2018-08-20T01:34:30.511Z,97968.70
2018-08-20T01:36:58.086Z,97971.88
2018-08-20T01:39:25.793Z,97964.71
2018-08-20T01:41:53.366Z,97964.39
2018-08-20T01:44:21.044Z,97968.08
2018-08-20T01:46:48.711Z,97964.52
2018-08-20T01:49:16.282Z,97965.28
2018-08-20T01:51:43.899Z,97969.65
2018-08-20T01:54:11.522Z,97965.55
2018-08-20T01:56:39.199Z,97965.66
2018-08-20T01:59:06.802Z,97970.55
2018-08-20T02:01:34.483Z,97963.94
2018-08-20T02:04:02.151Z,97962.88
2018-08-20T02:06:29.806Z,97970.17
2018-08-20T02:08:57.544Z,97971.45
2018-08-20T02:11:25.252Z,97974.28
2018-08-20T02:13:52.946Z,97970.70
2018-08-20T02:16:20.590Z,97963.98
2018-08-20T02:18:48.155Z,97958.23
2018-08-20T02:21:15.750Z,97960.84
2018-08-20T02:23:43.457Z,97955.00
2018-08-20T02:26:11.040Z,97952.61
2018-08-20T02:28:38.654Z,97953.38
2018-08-20T02:31:06.295Z,97951.74
2018-08-20T02:33:33.981Z,97951.66
2018-08-20T02:36:01.588Z,97950.14
2018-08-20T02:38:29.728Z,97951.11
2018-08-20T02:40:57.378Z,97945.27
2018-08-20T02:43:25.017Z,97942.56
2018-08-20T02:45:52.659Z,97937.23
2018-08-20T02:48:20.352Z,97936.83
2018-08-20T02:50:47.954Z,97938.66
2018-08-20T02:53:15.615Z,97942.25
2018-08-20T02:55:43.345Z,97932.39
2018-08-20T02:58:10.982Z,97944.99
2018-08-20T03:00:38.625Z,97936.43
2018-08-20T03:03:06.314Z,97938.18
2018-08-20T03:05:34.235Z,97937.73
2018-08-20T03:08:01.931Z,97936.98
2018-08-20T03:10:29.548Z,97944.36
2018-08-20T03:12:57.208Z,97944.36
2018-08-20T03:15:24.893Z,97939.91
2018-08-20T03:17:52.551Z,97949.31
2018-08-20T03:20:20.205Z,97945.09
2018-08-20T03:22:47.935Z,97944.22
2018-08-20T03:25:15.562Z,97941.96
2018-08-20T03:27:43.150Z,97946.83
2018-08-20T03:30:10.978Z,97943.03
2018-08-20T03:32:39.504Z,97947.59
2018-08-20T03:35:08.591Z,97950.60
2018-08-20T03:37:36.339Z,97947.70
2018-08-20T03:40:04.723Z,97947.47
2018-08-20T03:42:32.323Z,97947.69
2018-08-20T03:45:00.010Z,97948.98
2018-08-20T03:47:27.662Z,97944.20
2018-08-20T03:49:55.271Z,97949.06
2018-08-20T03:52:22.935Z,97943.00
2018-08-20T03:54:50.560Z,97942.13
2018-08-20T03:57:18.169Z,97947.11
2018-08-20T03:59:45.834Z,97952.52
2018-08-20T04:02:13.462Z,97947.64
2018-08-20T04:04:41.055Z,97947.11
2018-08-20T04:07:08.730Z,97953.80
2018-08-20T04:09:36.379Z,97947.98
2018-08-20T04:12:04.441Z,97940.59
2018-08-20T04:14:32.056Z,97940.59
2018-08-20T04:17:00.043Z,97940.82
2018-08-20T04:19:28.202Z,97949.91
2018-08-20T04:21:55.860Z,97944.50
2018-08-20T04:24:23.455Z,97941.56
2018-08-20T04:26:51.483Z,97945.47
2018-08-20T04:29:19.673Z,97950.87
2018-08-20T04:31:47.470Z,97956.62
2018-08-20T04:34:15.219Z,97960.72
2018-08-20T04:36:42.924Z,97953.66
2018-08-20T04:39:10.762Z,97958.21
2018-08-20T04:41:38.814Z,97958.63
2018-08-20T04:44:06.544Z,97957.56
2018-08-20T04:46:34.211Z,97954.41
2018-08-20T04:49:01.804Z,97961.32
2018-08-20T04:51:29.637Z,97964.92
2018-08-20T04:53:57.115Z,97963.63
2018-08-20T04:56:25.383Z,97959.94
2018-08-20T04:58:53.047Z,97960.81
2018-08-20T05:01:20.750Z,97961.90
2018-08-20T05:03:48.369Z,97966.12
2018-08-20T05:06:16.182Z,97967.64
2018-08-20T05:08:43.823Z,97967.64
2018-08-20T05:11:11.480Z,97966.58
2018-08-20T05:13:39.100Z,97967.45
2018-08-20T05:16:06.725Z,97968.98
2018-08-20T05:18:34.380Z,97969.00
2018-08-20T05:21:02.163Z,97962.94
2018-08-20T05:23:29.804Z,97968.37
2018-08-20T05:25:57.455Z,97966.44
2018-08-20T05:28:25.159Z,97973.03
2018-08-20T05:30:52.795Z,97965.83
2018-08-20T05:33:20.432Z,97971.89
2018-08-20T05:35:48.066Z,97966.03
2018-08-20T05:38:15.779Z,97975.13
2018-08-20T05:40:43.364Z,97973.25
2018-08-20T05:43:10.988Z,97981.48
2018-08-20T05:45:38.652Z,97984.27
2018-08-20T05:48:06.317Z,97989.16
2018-08-20T05:50:33.983Z,97989.66
2018-08-20T05:53:01.585Z,97996.03
2018-08-20T05:55:29.630Z,97993.62
2018-08-20T05:57:57.255Z,98001.84
2018-08-20T06:00:24.927Z,98000.56
2018-08-20T06:02:52.555Z,98007.84
2018-08-20T06:05:20.202Z,98009.75
2018-08-20T06:07:47.830Z,98013.22
2018-08-20T06:10:15.447Z,98016.98
2018-08-20T06:12:43.135Z,98019.42
2018-08-20T06:15:13.468Z,98022.65
2018-08-20T06:17:41.290Z,98020.00
2018-08-20T06:20:14.165Z,98021.96
2018-08-20T06:22:42.039Z,98020.22
2018-08-20T06:25:10.899Z,98024.09
2018-08-20T06:27:38.993Z,98026.23
2018-08-20T06:30:07.603Z,98032.48
2018-08-20T06:32:35.938Z,98030.36
2018-08-20T06:35:04.007Z,98036.00
2018-08-20T06:37:31.639Z,98034.11
2018-08-20T06:39:59.252Z,98037.81
2018-08-20T06:42:26.885Z,98042.14
2018-08-20T06:44:54.499Z,98051.23
2018-08-20T06:47:22.171Z,98051.30
2018-08-20T06:49:49.783Z,98050.00
2018-08-20T06:52:17.427Z,98054.68
2018-08-20T06:54:45.020Z,98049.70
2018-08-20T06:57:12.662Z,98052.59
2018-08-20T06:59:40.358Z,98053.37
2018-08-20T07:02:08.092Z,98051.86
2018-08-20T07:04:35.749Z,98060.91
2018-08-20T07:07:03.422Z,98056.55
2018-08-20T07:09:31.031Z,98058.92
2018-08-20T07:11:58.786Z,98056.53
2018-08-20T07:14:26.411Z,98065.08
2018-08-20T07:16:54.014Z,98064.86
2018-08-20T07:19:21.857Z,98066.13
2018-08-20T07:21:49.476Z,98063.88
2018-08-20T07:24:17.102Z,98061.16
2018-08-20T07:26:44.843Z,98057.99
2018-08-20T07:29:13.170Z,98064.00
2018-08-20T07:31:40.871Z,98069.25
2018-08-20T07:34:08.550Z,98067.58
2018-08-20T07:36:36.235Z,98066.27
2018-08-20T07:39:04.093Z,98066.04
2018-08-20T07:41:31.744Z,98070.77
2018-08-20T07:43:59.392Z,98082.67
2018-08-20T07:46:27.055Z,98076.61
2018-08-20T07:48:55.468Z,98072.75
2018-08-20T07:51:23.087Z,98076.47
2018-08-20T07:53:50.692Z,98078.98
2018-08-20T07:56:18.443Z,98080.24
2018-08-20T07:58:46.072Z,98076.12
2018-08-20T08:01:13.719Z,98080.09
2018-08-20T08:03:41.452Z,98087.55
2018-08-20T08:06:09.102Z,98094.75
2018-08-20T08:08:36.833Z,98086.28
2018-08-20T08:11:04.575Z,98083.41
2018-08-20T08:13:32.219Z,98085.58
2018-08-20T08:15:59.859Z,98083.07
2018-08-20T08:18:27.624Z,98082.63
2018-08-20T08:20:55.271Z,98079.86
2018-08-20T08:23:22.919Z,98074.96
2018-08-20T08:25:50.621Z,98074.22
2018-08-20T08:28:18.311Z,98084.86
2018-08-20T08:30:45.991Z,98085.74
2018-08-20T08:33:13.687Z,98089.50
2018-08-20T08:35:41.359Z,98079.38
2018-08-20T08:38:09.137Z,98080.22
2018-08-20T08:40:36.795Z,98081.61
2018-08-20T08:43:04.528Z,98072.91
2018-08-20T08:45:32.234Z,98075.57
2018-08-20T08:47:59.899Z,98067.70
2018-08-20T08:50:27.678Z,98070.84
2018-08-20T08:52:55.371Z,98079.22
2018-08-20T08:55:23.035Z,98072.77
2018-08-20T08:57:50.621Z,98071.44
2018-08-20T09:00:19.637Z,98075.59
2018-08-20T09:02:47.380Z,98060.72
2018-08-20T09:05:15.125Z,98068.92
2018-08-20T09:07:43.237Z,98067.52
2018-08-20T09:10:11.444Z,98069.83
2018-08-20T09:12:39.161Z,98081.23
2018-08-20T09:15:09.379Z,98067.78
2018-08-20T09:17:37.090Z,98068.58
2018-08-20T09:20:06.616Z,98066.39
2018-08-20T09:22:34.281Z,98063.53
2018-08-20T09:25:01.948Z,98053.30
2018-08-20T09:27:29.571Z,98052.53
2018-08-20T09:29:57.288Z,98055.73
2018-08-20T09:32:25.093Z,98049.16
2018-08-20T09:34:52.670Z,98043.53
2018-08-20T09:37:20.377Z,98053.03
2018-08-20T09:39:48.108Z,98048.11
2018-08-20T09:42:15.752Z,98048.41
2018-08-20T09:44:43.357Z,98056.16
2018-08-20T09:47:11.131Z,98044.27
2018-08-20T09:49:38.799Z,98055.27
2018-08-20T09:52:06.746Z,98065.47
2018-08-20T09:54:34.407Z,98058.24
2018-08-20T09:57:02.075Z,98055.46
2018-08-20T09:59:30.062Z,98054.09
2018-08-20T10:01:57.736Z,98055.24
2018-08-20T10:04:25.415Z,98039.75
2018-08-20T10:06:53.023Z,98041.72
2018-08-20T10:09:20.704Z,98036.94
2018-08-20T10:11:48.296Z,98041.47
2018-08-20T10:14:15.982Z,98038.33
2018-08-20T10:16:43.679Z,98036.70
2018-08-20T10:19:11.308Z,98035.98
2018-08-20T10:21:38.962Z,98033.31
2018-08-20T10:24:06.820Z,98029.48
2018-08-20T10:26:34.440Z,98033.55
2018-08-20T10:29:02.087Z,98024.15
2018-08-20T10:31:29.760Z,98020.66
2018-08-20T10:33:57.410Z,98026.54
2018-08-20T10:36:25.041Z,98025.94
2018-08-20T10:38:52.680Z,98030.31
2018-08-20T10:41:20.372Z,98021.58
2018-08-20T10:43:48.023Z,98023.32
2018-08-20T10:46:24.141Z,98026.04
2018-08-20T10:48:51.805Z,98023.02
2018-08-20T10:51:19.389Z,98024.00
2018-08-20T10:53:47.194Z,98028.91
2018-08-20T10:56:14.815Z,98029.67
2018-08-20T10:58:42.550Z,98032.33
2018-08-20T11:01:10.191Z,98029.77
2018-08-20T11:03:42.423Z,98032.91
2018-08-20T11:06:10.158Z,98020.39
2018-08-20T11:08:37.987Z,98023.91
2018-08-20T11:11:06.192Z,98023.67
2018-08-20T11:13:33.884Z,98023.54
2018-08-20T11:16:01.489Z,98025.88
2018-08-20T11:18:29.336Z,98026.36
2018-08-20T11:20:56.895Z,98016.99
2018-08-20T11:23:24.524Z,98013.23
2018-08-20T11:25:52.164Z,98012.11
2018-08-20T11:28:19.840Z,98009.66
2018-08-20T11:30:47.473Z,98016.74
2018-08-20T11:33:15.117Z,98016.48
2018-08-20T11:35:42.756Z,98012.03
2018-08-20T11:38:10.391Z,98007.15
2018-08-20T11:40:38.112Z,98013.91
2018-08-20T11:43:06.210Z,98007.03
2018-08-20T11:45:33.845Z,98000.49
2018-08-20T11:48:01.515Z,98009.65
2018-08-20T11:50:29.154Z,98010.17
2018-08-20T11:52:56.725Z,98012.53
2018-08-20T11:55:24.352Z,98015.53
2018-08-20T11:57:51.999Z,98019.69
2018-08-20T12:00:19.612Z,98018.86
2018-08-20T12:02:47.236Z,98019.79
2018-08-20T12:05:14.937Z,98017.23
2018-08-20T12:07:42.621Z,98020.55
2018-08-20T12:10:10.703Z,98006.89
2018-08-20T12:12:38.970Z,98008.78
2018-08-20T12:15:08.391Z,98008.77
2018-08-20T12:17:36.063Z,98009.82
2018-08-20T12:20:04.176Z,98005.83
2018-08-20T12:22:31.877Z,98011.52
2018-08-20T12:24:59.542Z,98010.78
2018-08-20T12:27:27.235Z,98006.33
2018-08-20T12:29:54.865Z,98013.08
2018-08-20T12:32:22.515Z,98012.09
2018-08-20T12:34:50.136Z,98010.31
2018-08-20T12:37:17.721Z,98006.00
2018-08-20T12:39:45.364Z,98002.45
2018-08-20T12:42:12.968Z,97990.84
2018-08-20T12:44:40.571Z,97994.78
2018-08-20T12:47:08.203Z,97991.88
2018-08-20T12:49:35.892Z,97995.02
2018-08-20T12:52:03.575Z,97995.73
2018-08-20T12:54:31.179Z,97990.06
2018-08-20T12:56:58.930Z,97989.76
2018-08-20T12:59:26.555Z,97982.48
2018-08-20T13:01:54.174Z,97992.44
2018-08-20T13:04:21.864Z,97987.09
2018-08-20T13:06:49.462Z,97992.23
2018-08-20T13:09:17.133Z,97992.84
2018-08-20T13:11:44.787Z,97989.77
2018-08-20T13:14:12.431Z,97983.05
2018-08-20T13:16:40.096Z,97976.88
2018-08-20T13:19:07.807Z,97973.13
2018-08-20T13:21:35.549Z,97978.83
2018-08-20T13:24:03.222Z,97978.66
2018-08-20T13:26:30.863Z,97973.53
2018-08-20T13:28:58.474Z,97978.20
2018-08-20T13:31:26.112Z,97974.03
2018-08-20T13:33:53.769Z,97975.41
2018-08-20T13:36:21.353Z,97968.70
2018-08-20T13:38:48.992Z,97967.69
2018-08-20T13:41:16.648Z,97982.39
2018-08-20T13:43:44.283Z,97989.06
2018-08-20T13:46:11.935Z,97976.47
2018-08-20T13:48:39.665Z,97976.36
2018-08-20T13:51:07.276Z,97977.53
2018-08-20T13:53:34.943Z,97975.25
2018-08-20T13:56:02.693Z,97970.87
2018-08-20T13:58:30.427Z,97978.65
2018-08-20T14:00:58.168Z,97980.06
2018-08-20T14:03:25.826Z,97978.03
2018-08-20T14:05:53.467Z,97983.25
2018-08-20T14:08:21.113Z,97979.73
2018-08-20T14:10:48.747Z,97978.73
2018-08-20T14:13:16.370Z,97984.25
2018-08-20T14:15:44.159Z,97973.34
2018-08-20T14:18:11.788Z,97976.64
2018-08-20T14:20:52.712Z,97986.54
2018-08-20T14:23:20.464Z,97974.80
2018-08-20T14:25:48.078Z,97977.59
2018-08-20T14:28:15.737Z,97973.63
2018-08-20T14:30:43.387Z,97984.44
2018-08-20T14:33:10.984Z,97980.50
2018-08-20T14:35:38.615Z,97980.41
2018-08-20T14:38:06.384Z,97977.80
2018-08-20T14:40:34.040Z,97978.42
2018-08-20T14:43:01.648Z,97979.02
2018-08-20T14:45:34.893Z,97987.16
2018-08-20T14:48:02.521Z,97985.34
2018-08-20T14:50:30.120Z,97981.44
2018-08-20T14:52:57.808Z,97972.08
2018-08-20T14:55:25.517Z,97965.84
2018-08-20T14:57:53.136Z,97975.67
2018-08-20T15:00:20.819Z,97974.34
2018-08-20T15:02:48.490Z,97976.22
2018-08-20T15:05:16.112Z,97980.00
2018-08-20T15:07:43.766Z,97972.91
2018-08-20T15:10:11.386Z,97966.31
2018-08-20T15:12:39.012Z,97963.41
2018-08-20T15:15:07.920Z,97968.49
2018-08-20T15:17:35.535Z,97969.48
2018-08-20T15:20:03.705Z,97961.98
2018-08-20T15:22:31.442Z,97966.03
2018-08-20T15:24:59.049Z,97970.87
2018-08-20T15:27:26.736Z,97970.57
2018-08-20T15:29:54.396Z,97970.83
2018-08-20T15:32:22.169Z,97968.17
2018-08-20T15:34:49.756Z,97969.80
2018-08-20T15:37:17.412Z,97971.52
2018-08-20T15:39:45.070Z,97976.52
2018-08-20T15:42:12.691Z,97972.72
2018-08-20T15:44:40.393Z,97978.28
2018-08-20T15:47:08.189Z,97979.07
2018-08-20T15:49:35.868Z,97984.65
2018-08-20T15:52:03.606Z,97985.48
2018-08-20T15:54:31.196Z,97989.31
2018-08-20T15:56:58.884Z,97991.22
2018-08-20T15:59:26.619Z,97984.27
2018-08-20T16:01:54.284Z,97991.05
2018-08-20T16:04:21.905Z,97985.35
2018-08-20T16:06:49.607Z,97986.57
2018-08-20T16:09:17.263Z,97985.80
2018-08-20T16:11:44.967Z,97986.61
2018-08-20T16:14:12.632Z,97981.02
2018-08-20T16:16:40.321Z,97985.21
2018-08-20T16:19:07.854Z,97975.54
2018-08-20T16:21:35.477Z,97986.80
2018-08-20T16:24:03.204Z,97986.41
2018-08-20T16:26:30.795Z,97985.69
2018-08-20T16:28:58.439Z,97990.05
2018-08-20T16:31:26.129Z,97995.05
2018-08-20T16:33:53.744Z,97992.20
2018-08-20T16:36:21.459Z,97993.76
2018-08-20T16:38:49.131Z,97983.88
2018-08-20T16:41:16.829Z,97989.84
2018-08-20T16:43:44.548Z,97990.96
2018-08-20T16:46:12.250Z,97994.22
2018-08-20T16:48:40.076Z,97989.71
2018-08-20T16:51:07.943Z,97995.49
2018-08-20T16:53:35.811Z,97993.81
2018-08-20T16:56:03.797Z,98000.69
2018-08-20T16:58:31.474Z,98002.45
2018-08-20T17:00:59.156Z,97997.44
2018-08-20T17:03:26.955Z,97998.45
2018-08-20T17:05:56.779Z,98001.53
2018-08-20T17:08:32.876Z,97993.92
2018-08-20T17:11:00.600Z,97998.77
2018-08-20T17:13:28.736Z,97994.59
2018-08-20T17:15:56.386Z,98002.67
2018-08-20T17:18:24.072Z,98010.84
2018-08-20T17:20:51.750Z,98006.46
2018-08-20T17:23:20.898Z,98005.13
2018-08-20T17:25:48.623Z,98008.45
2018-08-20T17:28:20.508Z,98010.53
2018-08-20T17:30:48.642Z,98011.82
2018-08-20T17:33:16.324Z,98013.81
2018-08-20T17:35:44.016Z,98013.56
2018-08-20T17:38:11.640Z,98007.56
2018-08-20T17:40:39.889Z,98017.07
2018-08-20T17:43:08.246Z,98013.42
2018-08-20T17:45:35.898Z,98012.19
2018-08-20T17:48:03.631Z,98021.94
2018-08-20T17:50:39.463Z,98022.55
2018-08-20T17:53:07.081Z,98029.20
2018-08-20T17:55:34.842Z,98030.62
2018-08-20T17:58:02.488Z,98033.50
2018-08-20T18:00:38.404Z,98038.52
2018-08-20T18:03:13.700Z,98036.66
2018-08-20T18:05:42.177Z,98037.04
2018-08-20T18:08:09.798Z,98034.37
2018-08-20T18:10:37.420Z,98041.64
2018-08-20T18:13:05.150Z,98040.98
2018-08-20T18:15:32.760Z,98037.97
2018-08-20T18:18:00.443Z,98040.97
2018-08-20T18:20:32.419Z,98042.05
2018-08-20T18:23:00.105Z,98038.70
2018-08-20T18:25:33.400Z,98047.61
2018-08-20T18:28:01.103Z,98050.26
2018-08-20T18:30:28.821Z,98044.57
2018-08-20T18:32:56.477Z,98044.78
2018-08-20T18:35:29.536Z,98051.06
2018-08-20T18:37:57.329Z,98053.05
2018-08-20T18:40:24.946Z,98048.69
2018-08-20T18:42:52.731Z,98052.00
2018-08-20T18:45:20.520Z,98051.08
2018-08-20T18:47:48.117Z,98052.14
2018-08-20T18:50:15.836Z,98063.21
2018-08-20T18:52:43.534Z,98064.44
2018-08-20T18:55:11.147Z,98065.80
2018-08-20T18:57:38.842Z,98067.03
2018-08-20T19:00:08.931Z,98067.92
2018-08-20T19:02:42.659Z,98070.94
2018-08-20T19:05:12.506Z,98075.02
2018-08-20T19:07:40.324Z,98079.28
2018-08-20T19:10:15.439Z,98080.57
2018-08-20T19:12:43.196Z,98074.16
2018-08-20T19:15:23.778Z,98070.30
2018-08-20T19:17:51.886Z,98074.72
2018-08-20T19:20:19.710Z,98080.50
2018-08-20T19:22:47.378Z,98080.02
2018-08-20T19:25:14.989Z,98081.42
2018-08-20T19:27:42.737Z,98080.85
2018-08-20T19:30:17.161Z,98083.97
2018-08-20T19:32:45.398Z,98084.47
2018-08-20T19:35:13.208Z,98085.41
2018-08-20T19:37:41.007Z,98084.35
2018-08-20T19:40:09.002Z,98082.25
2018-08-20T19:42:36.635Z,98086.57
2018-08-20T19:45:06.236Z,98089.67
2018-08-20T19:47:34.179Z,98086.36
2018-08-20T19:50:01.828Z,98085.11
2018-08-20T19:52:29.753Z,98085.66
2018-08-20T19:55:06.260Z,98086.70
2018-08-20T19:57:34.175Z,98086.48
2018-08-20T20:00:02.063Z,98090.35
2018-08-20T20:02:29.747Z,98086.76
2018-08-20T20:05:03.572Z,98090.35
2018-08-20T20:07:31.553Z,98095.91
2018-08-20T20:09:59.236Z,98089.48
2018-08-20T20:12:27.039Z,98096.98
2018-08-20T20:14:57.547Z,98091.21
2018-08-20T20:17:25.466Z,98087.63
2018-08-20T20:19:53.487Z,98092.05
2018-08-20T20:22:21.250Z,98089.42
2018-08-20T20:24:49.034Z,98091.70
2018-08-20T20:27:16.944Z,98096.16
2018-08-20T20:29:44.564Z,98100.23
2018-08-20T20:32:12.295Z,98103.25
2018-08-20T20:34:40.085Z,98102.24
2018-08-20T20:37:07.740Z,98104.05
2018-08-20T20:39:36.064Z,98099.59
2018-08-20T20:42:03.790Z,98107.70
2018-08-20T20:44:31.463Z,98108.46
2018-08-20T20:46:59.150Z,98106.39
2018-08-20T20:49:26.896Z,98103.84
2018-08-20T20:51:54.554Z,98098.93
2018-08-20T20:54:22.208Z,98107.08
2018-08-20T20:56:49.892Z,98101.42
2018-08-20T20:59:17.606Z,98111.98
2018-08-20T21:01:45.301Z,98109.61
2018-08-20T21:04:12.978Z,98120.45
2018-08-20T21:06:41.523Z,98120.55
2018-08-20T21:09:11.407Z,98121.31
2018-08-20T21:11:39.084Z,98127.31
2018-08-20T21:14:06.803Z,98118.64
2018-08-20T21:16:36.283Z,98126.11
2018-08-20T21:19:04.741Z,98122.89
2018-08-20T21:21:32.783Z,98122.69
2018-08-20T21:24:00.493Z,98125.31
2018-08-20T21:26:28.287Z,98125.52
2018-08-20T21:28:56.201Z,98120.95
2018-08-20T21:31:24.996Z,98127.96
2018-08-20T21:34:00.094Z,98123.79
2018-08-20T21:36:27.819Z,98131.45
2018-08-20T21:38:55.480Z,98135.04
2018-08-20T21:41:24.593Z,98126.89
2018-08-20T21:43:52.426Z,98124.55
2018-08-20T21:46:20.226Z,98124.61
2018-08-20T21:48:48.236Z,98129.61
2018-08-20T21:51:17.906Z,98133.20
2018-08-20T21:53:45.555Z,98139.02
2018-08-20T21:56:13.400Z,98137.39
2018-08-20T21:58:42.358Z,98138.42
2018-08-20T22:01:11.799Z,98140.39
2018-08-20T22:03:40.371Z,98138.97
2018-08-20T22:06:08.141Z,98137.45
2018-08-20T22:08:35.850Z,98143.70
2018-08-20T22:11:03.595Z,98146.60
2018-08-20T22:13:31.241Z,98144.35
2018-08-20T22:16:17.989Z,98144.35
2018-08-20T22:18:47.518Z,98149.36
2018-08-20T22:21:16.322Z,98153.29
2018-08-20T22:23:44.853Z,98156.49
2018-08-20T22:26:14.031Z,98156.67
2018-08-20T22:28:42.063Z,98153.95
2018-08-20T22:31:09.849Z,98156.39
2018-08-20T22:33:37.958Z,98163.22
2018-08-20T22:36:06.210Z,98161.52
2018-08-20T22:38:50.915Z,98161.31
2018-08-20T22:41:18.830Z,98167.62
2018-08-20T22:43:46.530Z,98171.77
2018-08-20T22:46:14.256Z,98164.52
2018-08-20T22:48:41.940Z,98167.78
2018-08-20T22:51:13.820Z,98166.16
2018-08-20T22:53:47.766Z,98167.50
2018-08-20T22:56:34.882Z,98174.15
2018-08-20T22:59:05.994Z,98172.73
2018-08-20T23:01:33.773Z,98172.95
2018-08-20T23:04:01.547Z,98177.34
2018-08-20T23:06:29.544Z,98181.95
2018-08-20T23:08:57.334Z,98182.50
2018-08-20T23:11:40.105Z,98184.46
2018-08-20T23:14:09.527Z,98182.18
2018-08-20T23:16:37.486Z,98181.84
2018-08-20T23:19:05.226Z,98176.19
2018-08-20T23:21:42.675Z,98181.08
2018-08-20T23:24:11.234Z,98185.98
2018-08-20T23:26:39.038Z,98194.58
2018-08-20T23:29:06.851Z,98184.67
2018-08-20T23:31:34.589Z,98187.69
2018-08-20T23:34:02.273Z,98187.69
2018-08-20T23:36:29.943Z,98191.09
2018-08-20T23:38:57.654Z,98193.92
2018-08-20T23:41:25.379Z,98191.75
2018-08-20T23:43:57.579Z,98197.95
2018-08-20T23:46:36.178Z,98193.71
2018-08-20T23:49:03.956Z,98194.16
2018-08-20T23:51:31.701Z,98199.73
2018-08-20T23:53:59.383Z,98198.97
2018-08-20T23:56:27.054Z,98199.27
2018-08-20T23:58:54.666Z,98191.25
